createdAt,value
2024-01-07T00:00:17.097Z,30.742270
2024-01-07T00:05:17.275Z,30.925409
2024-01-07T00:10:17.157Z,30.925409
2024-01-07T00:15:17.144Z,31.105472
2024-01-07T00:20:17.126Z,31.006814
2024-01-07T00:25:17.191Z,31.183739
2024-01-07T00:30:17.493Z,31.282524
2024-01-07T00:35:17.184Z,31.183739
2024-01-07T00:40:17.440Z,31.084953
2024-01-07T00:45:17.205Z,31.456626
2024-01-07T00:50:17.364Z,31.456626
2024-01-07T00:55:17.422Z,31.456626
2024-01-07T01:00:17.381Z,31.456626
2024-01-07T01:05:17.352Z,31.456626
2024-01-07T01:10:17.236Z,31.555538
2024-01-07T01:15:17.412Z,31.654450
2024-01-07T01:20:17.302Z,31.654450
2024-01-07T01:25:17.391Z,31.654450
2024-01-07T01:30:17.317Z,31.753362
2024-01-07T01:35:15.582Z,31.753362
2024-01-07T01:40:17.805Z,31.951184
2024-01-07T01:45:17.469Z,31.951184
2024-01-07T01:50:17.389Z,32.050095
2024-01-07T01:55:17.370Z,31.776449
2024-01-07T02:00:17.358Z,31.776449
2024-01-07T02:05:17.503Z,31.776449
2024-01-07T02:10:17.528Z,31.776449
2024-01-07T02:15:17.365Z,31.776449
2024-01-07T02:20:17.593Z,31.776449
2024-01-07T02:25:15.695Z,31.875233
2024-01-07T02:30:15.447Z,31.974017
2024-01-07T02:35:15.526Z,31.697413
2024-01-07T02:40:15.527Z,31.697413
2024-01-07T02:45:16.220Z,31.894725
2024-01-07T02:50:15.664Z,31.894725
2024-01-07T02:55:15.450Z,31.894725
2024-01-07T03:00:16.079Z,31.894725
2024-01-07T03:05:15.755Z,31.796069
2024-01-07T03:10:15.624Z,31.796069
2024-01-07T03:15:15.671Z,31.974017
2024-01-07T03:20:15.647Z,31.974017
2024-01-07T03:25:16.095Z,31.974017
2024-01-07T03:30:15.891Z,31.974017
2024-01-07T03:35:15.756Z,32.247916
2024-01-07T03:40:15.908Z,32.050095
2024-01-07T03:45:15.639Z,32.050095
2024-01-07T03:50:15.592Z,32.149005
2024-01-07T03:55:15.720Z,32.149005
2024-01-07T04:00:15.612Z,32.149005
2024-01-07T04:05:15.679Z,32.321095
2024-01-07T04:10:15.782Z,31.951184
2024-01-07T04:15:15.666Z,32.222059
2024-01-07T04:20:15.748Z,32.222059
2024-01-07T04:25:15.757Z,32.123022
2024-01-07T04:30:15.977Z,32.123022
2024-01-07T04:35:15.694Z,32.222059
2024-01-07T04:40:15.857Z,32.222059
2024-01-07T04:45:15.775Z,32.222059
2024-01-07T04:50:16.026Z,32.222059
2024-01-07T04:55:15.883Z,32.123022
2024-01-07T05:00:17.483Z,32.023986
2024-01-07T05:05:17.009Z,31.924949
2024-01-07T05:10:16.858Z,31.924949
2024-01-07T05:15:16.844Z,31.825912
2024-01-07T05:20:16.925Z,31.994538
2024-01-07T05:25:16.987Z,31.994538
2024-01-07T05:30:16.908Z,31.994538
2024-01-07T05:35:16.885Z,31.994538
2024-01-07T05:40:16.929Z,31.796215
2024-01-07T05:45:16.851Z,31.796215
2024-01-07T05:50:16.985Z,31.796215
2024-01-07T05:55:16.955Z,32.061100
2024-01-07T06:00:17.005Z,31.697053
2024-01-07T06:05:17.149Z,31.961815
2024-01-07T06:10:16.897Z,31.961815
2024-01-07T06:15:17.019Z,31.961815
2024-01-07T06:20:17.141Z,31.961815
2024-01-07T06:25:16.983Z,31.961815
2024-01-07T06:30:17.063Z,31.862530
2024-01-07T06:35:17.010Z,31.862530
2024-01-07T06:40:17.049Z,31.862530
2024-01-07T06:45:17.059Z,31.763245
2024-01-07T06:50:17.597Z,31.663960
2024-01-07T06:55:17.069Z,31.663960
2024-01-07T07:00:17.170Z,31.763245
2024-01-07T07:05:17.104Z,31.663960
2024-01-07T07:10:17.108Z,31.663960
2024-01-07T07:15:17.245Z,31.763245
2024-01-07T07:20:17.165Z,31.763245
2024-01-07T07:25:17.274Z,31.663960
2024-01-07T07:30:17.139Z,32.025285
2024-01-07T07:35:17.247Z,31.763245
2024-01-07T07:40:17.197Z,31.663960
2024-01-07T07:45:17.384Z,31.826471
2024-01-07T07:50:17.423Z,31.925878
2024-01-07T07:55:17.213Z,31.826471
2024-01-07T08:00:17.302Z,31.826471
2024-01-07T08:05:17.307Z,31.826471
2024-01-07T08:10:17.269Z,31.727064
2024-01-07T08:15:17.185Z,31.925878
2024-01-07T08:20:17.290Z,31.826471
2024-01-07T08:25:17.201Z,31.925878
2024-01-07T08:30:17.444Z,31.925878
2024-01-07T08:35:20.077Z,32.025285
2024-01-07T08:40:17.390Z,32.025285
2024-01-07T08:45:17.254Z,32.025285
2024-01-07T08:50:17.333Z,32.124692
2024-01-07T08:55:17.212Z,32.124692
2024-01-07T09:00:17.393Z,32.124692
2024-01-07T09:05:17.311Z,32.224098
2024-01-07T09:10:15.756Z,32.224098
2024-01-07T09:15:17.444Z,32.224098
2024-01-07T09:20:17.346Z,32.224098
2024-01-07T09:25:17.854Z,32.224098
2024-01-07T09:30:17.458Z,32.124692
2024-01-07T09:35:17.351Z,32.224098
2024-01-07T09:40:17.430Z,32.224098
2024-01-07T09:45:17.441Z,32.124692
2024-01-07T09:50:17.530Z,32.124692
2024-01-07T09:55:17.489Z,32.124692
2024-01-07T10:00:17.566Z,32.124692
2024-01-07T10:05:17.493Z,32.025285
2024-01-07T10:10:15.678Z,32.025285
2024-01-07T10:15:15.528Z,32.124692
2024-01-07T10:20:15.455Z,32.224098
2024-01-07T10:25:15.640Z,32.224098
2024-01-07T10:30:15.577Z,32.323505
2024-01-07T10:35:16.112Z,32.422911
2024-01-07T10:40:15.657Z,32.422911
2024-01-07T10:45:15.738Z,32.323505
2024-01-07T10:50:15.617Z,32.323505
2024-01-07T10:55:15.580Z,32.422911
2024-01-07T11:00:15.669Z,32.422911
2024-01-07T11:05:15.586Z,32.522317
2024-01-07T11:10:15.556Z,32.621723
2024-01-07T11:15:15.533Z,32.621723
2024-01-07T11:20:15.744Z,32.621723
2024-01-07T11:25:15.588Z,32.522317
2024-01-07T11:30:15.591Z,32.522317
2024-01-07T11:35:15.726Z,32.621723
2024-01-07T11:40:15.688Z,32.721129
2024-01-07T11:45:15.638Z,32.458237
2024-01-07T11:50:15.726Z,32.458237
2024-01-07T11:55:15.706Z,32.358953
2024-01-07T12:00:15.712Z,32.458237
2024-01-07T12:05:15.707Z,32.358953
2024-01-07T12:10:15.927Z,32.358953
2024-01-07T12:15:15.696Z,32.358953
2024-01-07T12:20:15.775Z,32.259669
2024-01-07T12:25:15.820Z,32.259669
2024-01-07T12:30:15.822Z,32.259669
2024-01-07T12:35:15.929Z,32.259669
2024-01-07T12:40:15.876Z,32.259669
2024-01-07T12:45:16.573Z,32.259669
2024-01-07T12:50:15.906Z,32.621723
2024-01-07T12:55:15.808Z,32.358953
2024-01-07T13:00:15.769Z,32.358953
2024-01-07T13:05:15.999Z,32.259669
2024-01-07T13:10:16.050Z,32.259669
2024-01-07T13:15:17.906Z,32.259669
2024-01-07T13:20:15.951Z,32.259669
2024-01-07T13:25:15.964Z,32.358953
2024-01-07T13:30:15.958Z,32.259669
2024-01-07T13:35:16.011Z,32.458237
2024-01-07T13:40:15.915Z,32.458237
2024-01-07T13:45:16.022Z,32.358953
2024-01-07T13:50:16.090Z,32.458237
2024-01-07T13:55:15.940Z,32.458237
2024-01-07T14:00:16.049Z,32.458237
2024-01-07T14:05:16.038Z,32.557521
2024-01-07T14:10:17.525Z,32.557521
2024-01-07T14:15:15.954Z,32.458237
2024-01-07T14:20:16.021Z,32.458237
2024-01-07T14:25:16.067Z,32.458237
2024-01-07T14:30:16.346Z,32.458237
2024-01-07T14:35:16.611Z,32.656805
2024-01-07T14:40:16.140Z,32.557521
2024-01-07T14:45:16.011Z,32.756088
2024-01-07T14:50:16.020Z,32.656805
2024-01-07T14:55:17.555Z,32.656805
2024-01-07T15:00:16.071Z,32.557521
2024-01-07T15:05:16.790Z,32.656805
2024-01-07T15:10:16.115Z,32.656805
2024-01-07T15:15:16.107Z,32.557521
2024-01-07T15:20:16.133Z,32.557521
2024-01-07T15:25:16.155Z,32.557521
2024-01-07T15:30:17.787Z,32.756088
2024-01-07T15:35:16.224Z,32.756088
2024-01-07T15:40:16.255Z,32.656805
2024-01-07T15:45:16.160Z,32.557521
2024-01-07T15:50:16.306Z,32.557521
2024-01-07T15:55:16.290Z,32.557521
2024-01-07T16:00:16.186Z,32.656805
2024-01-07T16:05:16.355Z,32.756088
2024-01-07T16:10:16.267Z,32.656805
2024-01-07T16:15:16.352Z,32.656805
2024-01-07T16:20:16.254Z,32.458237
2024-01-07T16:25:16.579Z,32.557521
2024-01-07T16:30:16.387Z,32.557521
2024-01-07T16:35:16.298Z,32.557521
2024-01-07T16:40:16.316Z,32.557521
2024-01-07T16:45:16.299Z,32.458237
2024-01-07T16:50:22.844Z,32.458237
2024-01-07T16:55:16.403Z,32.458237
2024-01-07T17:00:16.807Z,32.557521
2024-01-07T17:05:16.554Z,32.458237
2024-01-07T17:10:16.469Z,32.259669
2024-01-07T17:15:16.376Z,32.358953
2024-01-07T17:20:16.403Z,32.358953
2024-01-07T17:25:16.488Z,32.259669
2024-01-07T17:30:16.435Z,32.259669
2024-01-07T17:35:16.625Z,32.358953
2024-01-07T17:40:16.467Z,32.259669
2024-01-07T17:45:16.497Z,32.160384
2024-01-07T17:50:16.612Z,32.259669
2024-01-07T17:55:16.381Z,32.358953
2024-01-07T18:00:16.491Z,32.358953
2024-01-07T18:05:16.616Z,32.259669
2024-01-07T18:10:16.620Z,32.522317
2024-01-07T18:15:16.508Z,32.522317
2024-01-07T18:20:16.696Z,32.522317
2024-01-07T18:25:16.482Z,32.522317
2024-01-07T18:30:16.647Z,32.522317
2024-01-07T18:35:16.603Z,32.422911
2024-01-07T18:40:16.608Z,32.323505
2024-01-07T18:45:16.680Z,32.323505
2024-01-07T18:50:16.686Z,32.224098
2024-01-07T18:55:16.530Z,32.124692
2024-01-07T19:00:16.608Z,32.025285
2024-01-07T19:05:16.742Z,32.025285
2024-01-07T19:10:16.620Z,31.925878
2024-01-07T19:15:16.687Z,31.925878
2024-01-07T19:20:16.824Z,31.727064
2024-01-07T19:25:16.791Z,31.727064
2024-01-07T19:30:17.000Z,30.273950
2024-01-07T19:35:16.856Z,29.578933
2024-01-07T19:40:16.758Z,29.440661
2024-01-07T19:45:16.857Z,28.943607
2024-01-07T19:50:16.758Z,28.645373
2024-01-07T19:55:16.814Z,28.446550
2024-01-07T20:00:16.773Z,28.247726
2024-01-07T20:05:16.800Z,27.452425
2024-01-07T20:10:16.831Z,26.955357
2024-01-07T20:15:16.789Z,26.855944
2024-01-07T20:20:16.810Z,26.756530
2024-01-07T20:25:16.835Z,26.557701
2024-01-07T20:30:16.832Z,26.458287
2024-01-07T20:35:16.963Z,26.458287
2024-01-07T20:40:16.792Z,26.259457
2024-01-07T20:45:16.894Z,26.160042
2024-01-07T20:50:16.940Z,26.358872
2024-01-07T20:55:16.855Z,26.358872
2024-01-07T21:00:16.904Z,26.458287
2024-01-07T21:05:16.963Z,26.458287
2024-01-07T21:10:17.041Z,26.557701
2024-01-07T21:15:16.818Z,26.657115
2024-01-07T21:20:16.974Z,26.259457
2024-01-07T21:25:16.871Z,26.259457
2024-01-07T21:30:17.207Z,26.160042
2024-01-07T21:35:16.943Z,26.358872
2024-01-07T21:40:17.017Z,26.557701
2024-01-07T21:45:16.960Z,26.557701
2024-01-07T21:50:17.229Z,26.657115
2024-01-07T21:55:17.139Z,26.358872
2024-01-07T22:00:17.073Z,26.259457
2024-01-07T22:05:17.147Z,26.060627
2024-01-07T22:10:17.131Z,26.060627
2024-01-07T22:15:16.926Z,25.861797
2024-01-07T22:20:17.249Z,25.861797
2024-01-07T22:25:16.942Z,25.861797
2024-01-07T22:30:17.227Z,25.762381
2024-01-07T22:35:17.289Z,25.861797
2024-01-07T22:40:17.295Z,25.762381
2024-01-07T22:45:17.157Z,25.861797
2024-01-07T22:50:17.100Z,25.563550
2024-01-07T22:55:17.081Z,25.961212
2024-01-07T23:00:17.089Z,25.762381
2024-01-07T23:05:17.308Z,25.464134
2024-01-07T23:10:17.260Z,25.265302
2024-01-07T23:15:17.082Z,25.165886
2024-01-07T23:20:17.288Z,25.066470
2024-01-07T23:25:17.171Z,24.514990
2024-01-07T23:30:17.418Z,24.614288
2024-01-07T23:35:17.262Z,24.867636
2024-01-07T23:40:17.200Z,24.514990
2024-01-07T23:45:17.186Z,24.415693
2024-01-07T23:50:17.251Z,24.514990
2024-01-07T23:55:17.201Z,24.415693
